Time;durP1;ratioP1;P1;durP2;ratioP2;P2;SDS_P1;SDS_P2;PMS_P1;PMS_P2;Temp;Humidity;BMP_temperature;BMP_pressure;BME280_temperature;BME280_humidity;BME280_pressure;Samples;Min_cycle;Max_cycle;Signal;HPM_P1;HPM_P2
2023/07/06 00:02:19;;;;;;;13.18;11.32;;;;;;;;;;5011506;28;20011;-62
2023/07/06 00:04:44;;;;;;;14.17;12.07;;;;;;;;;;5012275;28;20493;-63
2023/07/06 00:07:10;;;;;;;12.77;11.40;;;;;;;;;;5011218;28;20018;-62
2023/07/06 00:09:35;;;;;;;14.05;12.60;;;;;;;;;;5012940;28;20025;-62
2023/07/06 00:12:01;;;;;;;16.48;12.10;;;;;;;;;;5010560;28;20420;-62
2023/07/06 00:14:26;;;;;;;15.85;12.95;;;;;;;;;;5012745;28;20014;-62
2023/07/06 00:17:06;;;;;;;14.00;11.20;;;;;;;;;;5012350;28;20112;-62
2023/07/06 00:19:31;;;;;;;17.58;12.45;;;;;;;;;;5010890;28;20038;-62
2023/07/06 00:21:57;;;;;;;21.48;14.95;;;;;;;;;;5012173;28;20088;-63
2023/07/06 00:24:24;;;;;;;15.80;13.27;;;;;;;;;;5010724;28;20057;-63
2023/07/06 00:26:49;;;;;;;16.75;12.68;;;;;;;;;;5011749;28;20048;-64
2023/07/06 00:29:15;;;;;;;20.50;14.35;;;;;;;;;;5010746;28;20037;-63
2023/07/06 00:31:51;;;;;;;15.05;13.43;;;;;;;;;;5011115;28;20053;-63
2023/07/06 00:34:16;;;;;;;17.27;12.80;;;;;;;;;;5012360;28;20088;-63
2023/07/06 00:36:42;;;;;;;18.60;15.20;;;;;;;;;;5010810;28;20485;-63
2023/07/06 00:39:12;;;;;;;16.23;14.52;;;;;;;;;;5012106;28;20026;-62
2023/07/06 00:41:37;;;;;;;25.23;15.75;;;;;;;;;;5010661;28;20073;-62
2023/07/06 00:44:04;;;;;;;22.95;17.13;;;;;;;;;;5011783;28;20140;-62
2023/07/06 00:46:33;;;;;;;19.83;15.45;;;;;;;;;;5010849;28;20065;-62
2023/07/06 00:48:59;;;;;;;18.08;14.40;;;;;;;;;;5011401;28;20022;-63
2023/07/06 00:51:32;;;;;;;22.02;15.50;;;;;;;;;;5010319;28;20018;-61
2023/07/06 00:54:01;;;;;;;16.38;13.88;;;;;;;;;;5011793;28;20366;-61
2023/07/06 00:56:28;;;;;;;21.55;16.20;;;;;;;;;;5010428;28;20041;-61
2023/07/06 00:59:02;;;;;;;18.58;14.70;;;;;;;;;;5011823;28;20017;-62
2023/07/06 01:01:27;;;;;;;24.92;16.38;;;;;;;;;;5010721;28;20101;-61
2023/07/06 01:03:54;;;;;;;21.03;15.97;;;;;;;;;;5011070;28;20113;-61
2023/07/06 01:06:31;;;;;;;20.33;15.95;;;;;;;;;;5010105;28;20049;-61
2023/07/06 01:08:57;;;;;;;20.73;17.55;;;;;;;;;;5011566;28;20021;-62
2023/07/06 01:11:22;;;;;;;27.65;17.35;;;;;;;;;;5010054;28;20025;-61
2023/07/06 01:13:49;;;;;;;22.83;16.70;;;;;;;;;;5011654;28;20018;-61
2023/07/06 01:16:37;;;;;;;20.83;14.98;;;;;;;;;;5010146;28;20018;-61
2023/07/06 01:19:24;;;;;;;24.60;16.35;;;;;;;;;;5011206;28;20089;-61
2023/07/06 01:22:02;;;;;;;20.58;16.98;;;;;;;;;;5010084;28;20030;-61
2023/07/06 01:24:36;;;;;;;21.63;18.65;;;;;;;;;;5011375;28;20026;-62
2023/07/06 01:27:20;;;;;;;21.42;16.70;;;;;;;;;;5009515;28;20042;-62
2023/07/06 01:30:06;;;;;;;29.20;17.95;;;;;;;;;;5011384;28;20022;-61
2023/07/06 01:32:33;;;;;;;24.42;19.15;;;;;;;;;;5009824;28;20076;-62
2023/07/06 01:35:17;;;;;;;28.25;20.88;;;;;;;;;;5010159;28;20096;-62
2023/07/06 01:37:43;;;;;;;38.17;21.00;;;;;;;;;;5009569;28;20537;-62
2023/07/06 01:40:11;;;;;;;26.95;18.08;;;;;;;;;;5010366;28;20057;-62
2023/07/06 01:42:37;;;;;;;29.77;20.95;;;;;;;;;;5009338;28;20042;-63
2023/07/06 01:45:07;;;;;;;28.00;19.02;;;;;;;;;;5011342;28;20080;-63
2023/07/06 01:47:35;;;;;;;25.60;18.95;;;;;;;;;;5009763;28;20052;-62
2023/07/06 01:50:01;;;;;;;26.98;18.33;;;;;;;;;;5010489;28;20022;-63
2023/07/06 01:52:50;;;;;;;25.98;20.60;;;;;;;;;;5009374;28;20030;-64
2023/07/06 01:55:15;;;;;;;28.45;20.17;;;;;;;;;;5010615;28;20025;-62
2023/07/06 01:57:53;;;;;;;27.70;21.08;;;;;;;;;;5009556;28;20486;-62
2023/07/06 02:00:19;;;;;;;27.17;19.02;;;;;;;;;;5011452;28;20033;-63
2023/07/06 02:02:45;;;;;;;20.90;18.27;;;;;;;;;;5009156;28;20527;-62
2023/07/06 02:05:12;;;;;;;23.63;19.55;;;;;;;;;;5010473;28;20057;-63
2023/07/06 02:07:38;;;;;;;30.90;16.92;;;;;;;;;;5009324;28;20033;-63
2023/07/06 02:10:03;;;;;;;31.48;19.38;;;;;;;;;;5010108;28;20032;-62
2023/07/06 02:12:28;;;;;;;28.02;20.27;;;;;;;;;;5009703;28;20057;-62
2023/07/06 02:14:53;;;;;;;21.38;18.27;;;;;;;;;;5010839;28;20381;-63
2023/07/06 02:17:21;;;;;;;24.70;18.75;;;;;;;;;;5009287;28;20030;-62
2023/07/06 02:19:46;;;;;;;24.55;18.48;;;;;;;;;;5010798;28;20028;-62
2023/07/06 02:22:11;;;;;;;21.45;17.60;;;;;;;;;;5009197;28;20121;-62
2023/07/06 02:24:38;;;;;;;33.10;19.90;;;;;;;;;;5010645;28;20034;-62
2023/07/06 02:27:05;;;;;;;23.73;17.58;;;;;;;;;;5008730;28;20453;-62
2023/07/06 02:29:30;;;;;;;22.95;16.88;;;;;;;;;;5010910;28;20018;-62
2023/07/06 02:31:55;;;;;;;24.23;18.40;;;;;;;;;;5009149;28;20121;-62
2023/07/06 02:34:27;;;;;;;23.10;17.38;;;;;;;;;;5010437;28;20014;-62
2023/07/06 02:36:53;;;;;;;24.50;16.75;;;;;;;;;;5009125;28;20062;-62
2023/07/06 02:39:20;;;;;;;25.05;16.55;;;;;;;;;;5010864;28;20094;-62
2023/07/06 02:41:45;;;;;;;26.58;17.40;;;;;;;;;;5008888;28;20034;-63
2023/07/06 02:44:10;;;;;;;18.60;16.30;;;;;;;;;;5010417;28;20141;-62
2023/07/06 02:46:36;;;;;;;19.58;17.33;;;;;;;;;;5008996;28;20485;-61
2023/07/06 02:49:01;;;;;;;21.98;16.98;;;;;;;;;;5009950;28;20018;-62
2023/07/06 02:51:29;;;;;;;23.42;17.83;;;;;;;;;;5012249;28;20062;-62
2023/07/06 02:53:54;;;;;;;19.08;16.88;;;;;;;;;;5013811;28;20081;-62
2023/07/06 02:56:19;;;;;;;22.85;17.05;;;;;;;;;;5012601;28;20640;-61
2023/07/06 02:58:44;;;;;;;34.42;18.80;;;;;;;;;;5013837;28;20025;-62
2023/07/06 03:01:12;;;;;;;24.92;18.85;;;;;;;;;;5013957;28;20026;-64
2023/07/06 03:03:37;;;;;;;23.75;18.27;;;;;;;;;;5012180;28;20037;-63
2023/07/06 03:06:03;;;;;;;23.73;18.20;;;;;;;;;;5013458;28;20046;-62
2023/07/06 03:08:28;;;;;;;28.90;19.55;;;;;;;;;;5012243;28;20030;-62
2023/07/06 03:10:53;;;;;;;25.13;18.83;;;;;;;;;;5013419;28;20025;-62
2023/07/06 03:13:18;;;;;;;25.60;17.80;;;;;;;;;;5012380;28;20050;-63
2023/07/06 03:15:49;;;;;;;23.47;20.17;;;;;;;;;;5013775;28;20432;-63
2023/07/06 03:18:14;;;;;;;28.70;18.88;;;;;;;;;;5011756;28;20402;-64
2023/07/06 03:20:40;;;;;;;27.77;18.65;;;;;;;;;;5013871;28;20030;-63
2023/07/06 03:23:06;;;;;;;28.60;18.80;;;;;;;;;;5011156;28;20497;-65
2023/07/06 03:25:33;;;;;;;24.48;18.25;;;;;;;;;;5013579;28;20037;-64
2023/07/06 03:27:58;;;;;;;28.08;18.48;;;;;;;;;;5010503;28;20517;-65
2023/07/06 03:30:26;;;;;;;42.93;21.10;;;;;;;;;;5013607;28;20024;-64
2023/07/06 03:32:54;;;;;;;28.20;19.35;;;;;;;;;;5011515;28;20544;-64
2023/07/06 03:35:22;;;;;;;22.37;17.63;;;;;;;;;;5013673;28;20105;-64
2023/07/06 03:37:48;;;;;;;40.25;19.25;;;;;;;;;;5011954;28;20081;-63
2023/07/06 03:40:14;;;;;;;26.35;16.70;;;;;;;;;;5013027;28;20476;-63
2023/07/06 03:42:40;;;;;;;26.02;17.30;;;;;;;;;;5011512;28;20133;-63
2023/07/06 03:45:06;;;;;;;23.83;18.10;;;;;;;;;;5012771;28;20018;-64
2023/07/06 03:47:33;;;;;;;23.10;14.65;;;;;;;;;;5011470;28;20104;-62
2023/07/06 03:49:58;;;;;;;23.05;15.05;;;;;;;;;;5012925;28;20025;-62
2023/07/06 03:52:23;;;;;;;27.55;16.50;;;;;;;;;;5011356;28;20026;-62
2023/07/06 03:54:49;;;;;;;23.10;16.80;;;;;;;;;;5012385;28;20018;-62
2023/07/06 03:57:16;;;;;;;21.33;14.82;;;;;;;;;;5010902;28;20543;-62
2023/07/06 03:59:41;;;;;;;25.10;15.05;;;;;;;;;;5012900;28;20107;-62
2023/07/06 04:02:06;;;;;;;22.83;14.85;;;;;;;;;;5009905;28;20089;-62
2023/07/06 04:04:33;;;;;;;18.60;14.13;;;;;;;;;;5012858;28;20061;-62
2023/07/06 04:06:58;;;;;;;20.23;13.18;;;;;;;;;;5011207;28;20034;-63
2023/07/06 04:09:26;;;;;;;18.50;13.20;;;;;;;;;;5012286;28;20065;-62
2023/07/06 04:11:55;;;;;;;;;;;;;;;;;;5010974;28;20457;-62
2023/07/06 04:14:24;;;;;;;15.98;13.02;;;;;;;;;;5012146;28;19996;-62
2023/07/06 04:16:49;;;;;;;21.65;12.80;;;;;;;;;;5010909;28;20025;-63
2023/07/06 04:19:14;;;;;;;15.38;11.65;;;;;;;;;;5012152;28;20026;-63
2023/07/06 04:21:39;;;;;;;17.67;11.68;;;;;;;;;;5010457;28;20520;-61
2023/07/06 04:24:05;;;;;;;17.30;12.90;;;;;;;;;;5011439;28;20021;-61
2023/07/06 04:26:30;;;;;;;18.20;13.90;;;;;;;;;;5010901;28;20046;-61
2023/07/06 04:28:55;;;;;;;13.63;12.00;;;;;;;;;;5012054;28;20094;-61
2023/07/06 04:31:20;;;;;;;14.65;11.85;;;;;;;;;;5009918;28;20480;-61
2023/07/06 04:33:46;;;;;;;16.13;11.07;;;;;;;;;;5011706;28;20528;-61
2023/07/06 04:36:12;;;;;;;12.35;8.63;;;;;;;;;;5010521;28;20033;-60
2023/07/06 04:38:37;;;;;;;20.13;11.05;;;;;;;;;;5011758;28;20069;-61
2023/07/06 04:41:02;;;;;;;16.17;10.77;;;;;;;;;;5011574;28;20527;-61
2023/07/06 04:43:27;;;;;;;15.73;9.60;;;;;;;;;;5010203;28;20037;-61
2023/07/06 04:45:55;;;;;;;16.48;9.50;;;;;;;;;;5011449;28;20424;-61
2023/07/06 04:48:21;;;;;;;10.70;6.68;;;;;;;;;;5010411;28;20045;-61
2023/07/06 04:50:46;;;;;;;32.65;10.23;;;;;;;;;;5011878;28;20481;-61
2023/07/06 04:53:11;;;;;;;13.67;10.17;;;;;;;;;;5010020;28;20113;-61
2023/07/06 04:55:37;;;;;;;16.85;8.70;;;;;;;;;;5012000;28;20018;-61
2023/07/06 04:58:05;;;;;;;10.93;9.07;;;;;;;;;;5010316;28;20087;-61
2023/07/06 05:00:30;;;;;;;;;;;;;;;;;;5008585;28;20493;-61
2023/07/06 05:02:58;;;;;;;13.07;7.65;;;;;;;;;;5005088;28;20047;-60
2023/07/06 05:05:25;;;;;;;10.35;8.73;;;;;;;;;;5006588;28;20405;-61
2023/07/06 05:07:51;;;;;;;13.23;9.48;;;;;;;;;;5008127;28;20096;-61
2023/07/06 05:10:16;;;;;;;15.23;8.30;;;;;;;;;;5010556;28;20041;-61
2023/07/06 05:12:42;;;;;;;17.20;8.70;;;;;;;;;;5008841;28;20485;-61
2023/07/06 05:15:07;;;;;;;11.20;7.28;;;;;;;;;;5009653;28;20911;-60
2023/07/06 05:17:33;;;;;;;11.32;8.25;;;;;;;;;;5008622;28;20037;-60
2023/07/06 05:19:58;;;;;;;21.00;8.77;;;;;;;;;;5010250;28;20018;-61
2023/07/06 05:22:25;;;;;;;13.15;7.97;;;;;;;;;;5008517;28;21306;-61
2023/07/06 05:24:50;;;;;;;14.35;6.90;;;;;;;;;;5010732;28;20358;-61
2023/07/06 05:27:15;;;;;;;9.27;7.97;;;;;;;;;;5008885;28;20052;-61
2023/07/06 05:29:40;;;;;;;11.93;7.82;;;;;;;;;;5010200;28;20456;-61
2023/07/06 05:32:07;;;;;;;15.60;8.07;;;;;;;;;;5008582;28;20505;-61
2023/07/06 05:34:32;;;;;;;11.02;6.65;;;;;;;;;;5009776;28;20018;-61
2023/07/06 05:36:57;;;;;;;14.45;7.03;;;;;;;;;;5007832;28;20026;-61
2023/07/06 05:39:22;;;;;;;12.03;6.80;;;;;;;;;;5010108;28;20042;-61
2023/07/06 05:41:48;;;;;;;15.40;8.30;;;;;;;;;;5009889;28;21072;-61
2023/07/06 05:44:13;;;;;;;16.53;8.30;;;;;;;;;;5010920;28;20025;-61
2023/07/06 05:46:38;;;;;;;9.98;6.75;;;;;;;;;;5009353;28;20483;-61
2023/07/06 05:49:03;;;;;;;16.90;8.17;;;;;;;;;;5009773;28;20484;-61
2023/07/06 05:51:28;;;;;;;11.95;7.97;;;;;;;;;;5009733;28;20507;-61
2023/07/06 05:53:53;;;;;;;17.35;7.85;;;;;;;;;;5010533;28;20413;-61
2023/07/06 05:56:19;;;;;;;17.45;6.88;;;;;;;;;;5009646;28;20034;-60
2023/07/06 05:58:44;;;;;;;10.23;6.32;;;;;;;;;;5010873;28;20025;-61
2023/07/06 06:01:10;;;;;;;12.97;6.10;;;;;;;;;;5008490;28;20021;-62
2023/07/06 06:03:35;;;;;;;14.27;6.97;;;;;;;;;;5008848;28;20461;-61
2023/07/06 06:06:00;;;;;;;11.27;7.18;;;;;;;;;;5010568;28;20104;-61
2023/07/06 06:08:26;;;;;;;17.80;7.70;;;;;;;;;;5009141;28;20072;-61
2023/07/06 06:10:51;;;;;;;15.05;6.95;;;;;;;;;;5010841;28;20018;-61
2023/07/06 06:13:17;;;;;;;18.25;6.93;;;;;;;;;;5009303;28;20041;-61
2023/07/06 06:15:42;;;;;;;13.00;6.77;;;;;;;;;;5010510;28;20046;-61
2023/07/06 06:18:07;;;;;;;22.70;8.48;;;;;;;;;;5008970;28;20543;-61
2023/07/06 06:20:32;;;;;;;13.87;6.83;;;;;;;;;;5010782;28;20013;-61
2023/07/06 06:22:58;;;;;;;16.73;6.32;;;;;;;;;;5008756;28;20045;-60
2023/07/06 06:25:24;;;;;;;11.77;6.78;;;;;;;;;;5012305;28;20018;-60
2023/07/06 06:27:49;;;;;;;9.15;6.97;;;;;;;;;;5013192;28;20037;-60
2023/07/06 06:30:15;;;;;;;21.63;7.70;;;;;;;;;;5014105;28;20025;-60
2023/07/06 06:32:40;;;;;;;17.08;9.07;;;;;;;;;;5013267;28;20030;-60
2023/07/06 06:35:24;;;;;;;16.77;6.25;;;;;;;;;;5014250;28;20492;-60
2023/07/06 06:37:49;;;;;;;20.73;9.52;;;;;;;;;;5012831;28;20034;-61
2023/07/06 06:40:15;;;;;;;12.70;6.75;;;;;;;;;;5014179;28;20025;-61
2023/07/06 06:42:40;;;;;;;13.02;7.50;;;;;;;;;;5013041;28;20091;-61
2023/07/06 06:45:06;;;;;;;18.50;8.18;;;;;;;;;;5013495;28;20097;-61
2023/07/06 06:47:32;;;;;;;15.20;7.25;;;;;;;;;;5012675;28;20042;-61
2023/07/06 06:49:57;;;;;;;33.03;11.48;;;;;;;;;;5015012;28;20029;-61
2023/07/06 06:52:22;;;;;;;16.42;8.65;;;;;;;;;;5013768;28;20038;-61
2023/07/06 06:54:50;;;;;;;14.80;6.80;;;;;;;;;;5014744;28;20014;-61
2023/07/06 06:57:16;;;;;;;15.43;9.60;;;;;;;;;;5012407;28;20034;-61
2023/07/06 06:59:42;;;;;;;20.05;7.90;;;;;;;;;;5013671;28;20032;-61
2023/07/06 07:02:07;;;;;;;20.15;9.68;;;;;;;;;;5012387;28;20555;-61
2023/07/06 07:04:33;;;;;;;16.73;10.07;;;;;;;;;;5013740;28;20046;-60
2023/07/06 07:07:02;;;;;;;11.20;7.90;;;;;;;;;;5012301;28;20400;-60
2023/07/06 07:09:28;;;;;;;11.60;7.07;;;;;;;;;;5014009;28;20025;-60
2023/07/06 07:11:53;;;;;;;13.00;8.52;;;;;;;;;;5012098;28;20034;-61
2023/07/06 07:14:18;;;;;;;23.00;10.00;;;;;;;;;;5013603;28;20097;-60
2023/07/06 07:16:43;;;;;;;20.20;9.47;;;;;;;;;;5012548;28;20034;-60
2023/07/06 07:19:09;;;;;;;24.73;11.43;;;;;;;;;;5013559;28;20503;-60
2023/07/06 07:21:35;;;;;;;15.73;8.57;;;;;;;;;;5011992;28;20037;-60
2023/07/06 07:24:01;;;;;;;12.10;9.05;;;;;;;;;;5013178;28;20030;-60
2023/07/06 07:26:26;;;;;;;19.17;11.60;;;;;;;;;;5011886;28;20030;-61
2023/07/06 07:28:51;;;;;;;22.30;9.40;;;;;;;;;;5013084;28;20456;-60
2023/07/06 07:31:17;;;;;;;18.40;9.02;;;;;;;;;;5012222;28;20429;-60
2023/07/06 07:33:44;;;;;;;19.33;10.95;;;;;;;;;;5013720;28;20369;-60
2023/07/06 07:36:09;;;;;;;17.17;9.50;;;;;;;;;;5011400;28;20476;-60
2023/07/06 07:38:36;;;;;;;18.20;10.38;;;;;;;;;;5013254;28;20010;-60
2023/07/06 07:41:02;;;;;;;16.63;9.43;;;;;;;;;;5011784;28;20432;-60
2023/07/06 07:43:28;;;;;;;21.75;10.52;;;;;;;;;;5011221;28;20068;-60
2023/07/06 07:45:55;;;;;;;17.67;10.65;;;;;;;;;;5012909;28;20022;-60
2023/07/06 07:48:22;;;;;;;22.05;9.18;;;;;;;;;;5011613;28;20048;-60
2023/07/06 07:50:47;;;;;;;18.52;10.13;;;;;;;;;;5012841;28;20018;-60
2023/07/06 07:53:13;;;;;;;15.65;10.57;;;;;;;;;;5011763;28;20124;-60
2023/07/06 07:55:41;;;;;;;20.27;11.43;;;;;;;;;;5013293;28;20022;-60
2023/07/06 07:58:06;;;;;;;20.50;9.95;;;;;;;;;;5010227;28;20484;-60
2023/07/06 08:00:32;;;;;;;22.65;11.68;;;;;;;;;;5013581;28;20046;-60
2023/07/06 08:02:57;;;;;;;16.35;10.05;;;;;;;;;;5011293;28;20504;-60
2023/07/06 08:05:23;;;;;;;19.50;12.07;;;;;;;;;;5010280;28;20038;-60
2023/07/06 08:07:48;;;;;;;15.50;8.30;;;;;;;;;;5010925;28;20050;-60
2023/07/06 08:10:14;;;;;;;11.53;10.10;;;;;;;;;;5012599;28;20057;-60
2023/07/06 08:12:39;;;;;;;18.52;8.45;;;;;;;;;;5011653;28;20034;-60
2023/07/06 08:15:05;;;;;;;12.07;7.67;;;;;;;;;;5012616;28;20021;-60
2023/07/06 08:17:30;;;;;;;14.27;9.38;;;;;;;;;;5010900;28;20464;-60
2023/07/06 08:19:55;;;;;;;13.65;7.70;;;;;;;;;;5011972;28;20104;-60
2023/07/06 08:22:22;;;;;;;12.98;7.40;;;;;;;;;;5010927;28;20516;-60
2023/07/06 08:24:47;;;;;;;18.63;8.63;;;;;;;;;;5012425;28;20037;-60
2023/07/06 08:27:13;;;;;;;15.37;9.67;;;;;;;;;;5010885;28;20038;-60
2023/07/06 08:29:42;;;;;;;16.77;9.48;;;;;;;;;;5012028;28;20057;-60
2023/07/06 08:32:08;;;;;;;19.17;9.35;;;;;;;;;;5010854;28;20034;-60
2023/07/06 08:34:35;;;;;;;14.70;9.20;;;;;;;;;;5012350;28;20500;-60
2023/07/06 08:37:00;;;;;;;15.10;9.27;;;;;;;;;;5010180;28;20030;-60
2023/07/06 08:39:25;;;;;;;30.48;11.27;;;;;;;;;;5012012;28;20029;-60
2023/07/06 08:41:51;;;;;;;16.30;8.57;;;;;;;;;;5010630;28;20037;-60
2023/07/06 08:44:17;;;;;;;13.82;8.57;;;;;;;;;;5043392;28;20476;-60
2023/07/06 08:46:48;;;;;;;20.98;11.23;;;;;;;;;;5010636;28;20029;-60
2023/07/06 08:49:19;;;;;;;14.68;7.80;;;;;;;;;;5011564;28;20018;-60
2023/07/06 08:51:44;;;;;;;12.25;7.72;;;;;;;;;;5010141;28;20401;-60
2023/07/06 08:54:27;;;;;;;11.17;8.70;;;;;;;;;;5011633;28;20014;-60
2023/07/06 08:56:53;;;;;;;12.27;8.90;;;;;;;;;;5010261;28;20528;-60
2023/07/06 08:59:32;;;;;;;15.07;9.48;;;;;;;;;;5011561;28;20398;-60
2023/07/06 09:01:57;;;;;;;27.40;11.45;;;;;;;;;;5010229;28;20088;-60
2023/07/06 09:04:24;;;;;;;14.30;9.82;;;;;;;;;;5011404;28;20026;-60
2023/07/06 09:06:52;;;;;;;20.75;10.30;;;;;;;;;;5010429;28;20056;-60
2023/07/06 09:09:17;;;;;;;21.83;11.18;;;;;;;;;;5011835;28;20022;-60
2023/07/06 09:11:44;;;;;;;17.80;10.52;;;;;;;;;;5010185;28;20048;-60
2023/07/06 09:14:10;;;;;;;16.90;9.93;;;;;;;;;;5011339;28;20046;-60
2023/07/06 09:16:37;;;;;;;13.13;8.38;;;;;;;;;;5010179;28;20489;-60
2023/07/06 09:19:09;;;;;;;13.25;7.45;;;;;;;;;;5011387;28;20030;-60
2023/07/06 09:21:34;;;;;;;12.35;9.05;;;;;;;;;;5010220;28;20034;-60
2023/07/06 09:23:59;;;;;;;15.73;10.70;;;;;;;;;;5010759;28;20071;-61
2023/07/06 09:26:29;;;;;;;13.63;9.93;;;;;;;;;;5009974;28;20018;-60
2023/07/06 09:29:13;;;;;;;19.85;9.70;;;;;;;;;;5011039;28;20017;-61
2023/07/06 09:31:39;;;;;;;18.50;10.27;;;;;;;;;;5010101;28;20033;-60
2023/07/06 09:34:10;;;;;;;17.70;11.40;;;;;;;;;;5010633;28;20377;-61
2023/07/06 09:36:36;;;;;;;14.90;10.25;;;;;;;;;;5009867;28;20030;-61
2023/07/06 09:39:05;;;;;;;20.13;10.63;;;;;;;;;;5011259;28;20129;-61
2023/07/06 09:41:32;;;;;;;24.55;10.23;;;;;;;;;;5009573;28;20034;-61
2023/07/06 09:43:58;;;;;;;12.43;8.60;;;;;;;;;;5010822;28;20028;-61
2023/07/06 09:46:26;;;;;;;21.98;10.50;;;;;;;;;;5009460;28;20014;-61
2023/07/06 09:48:52;;;;;;;12.40;9.32;;;;;;;;;;5010516;28;20190;-61
2023/07/06 09:51:21;;;;;;;14.93;9.82;;;;;;;;;;5009988;28;20024;-61
2023/07/06 09:53:54;;;;;;;19.83;11.98;;;;;;;;;;5011000;28;20057;-61
2023/07/06 09:56:19;;;;;;;13.38;9.82;;;;;;;;;;5009222;28;20388;-61
2023/07/06 09:58:49;;;;;;;20.07;10.03;;;;;;;;;;5011116;28;20093;-61
2023/07/06 10:01:20;;;;;;;22.00;11.02;;;;;;;;;;5012593;28;20429;-60
2023/07/06 10:03:53;;;;;;;16.58;9.63;;;;;;;;;;5014892;28;20109;-61
2023/07/06 10:06:21;;;;;;;17.52;9.18;;;;;;;;;;5013402;28;20042;-60
2023/07/06 10:08:52;;;;;;;18.55;10.65;;;;;;;;;;5014917;28;20450;-61
2023/07/06 10:11:24;;;;;;;11.88;10.43;;;;;;;;;;5013497;28;20020;-61
2023/07/06 10:13:53;;;;;;;15.73;9.80;;;;;;;;;;5015143;28;20072;-61
2023/07/06 10:16:24;;;;;;;19.00;10.45;;;;;;;;;;5013218;28;20026;-60
2023/07/06 10:18:54;;;;;;;19.08;10.23;;;;;;;;;;5014214;28;20116;-61
2023/07/06 10:21:21;;;;;;;19.60;11.90;;;;;;;;;;5013456;28;20021;-61
2023/07/06 10:23:54;;;;;;;18.88;9.80;;;;;;;;;;5014743;28;20469;-61
2023/07/06 10:26:33;;;;;;;12.10;9.82;;;;;;;;;;5012624;28;20018;-61
2023/07/06 10:29:00;;;;;;;14.95;8.80;;;;;;;;;;5013432;28;20489;-61
2023/07/06 10:31:28;;;;;;;18.23;8.63;;;;;;;;;;5013059;28;20493;-60
2023/07/06 10:34:03;;;;;;;19.92;10.85;;;;;;;;;;5013380;28;20034;-61
2023/07/06 10:36:32;;;;;;;12.15;8.93;;;;;;;;;;5012853;28;20125;-62
2023/07/06 10:38:57;;;;;;;;;;;;;;;;;;5014666;28;20045;-61
2023/07/06 10:41:22;;;;;;;;;;;;;;;;;;5013006;28;19909;-61
2023/07/06 10:43:49;;;;;;;;;;;;;;;;;;5014919;28;19909;-61
2023/07/06 10:46:14;;;;;;;;;;;;;;;;;;5013672;28;20059;-61
2023/07/06 10:48:40;;;;;;;;;;;;;;;;;;5014494;28;20020;-61
2023/07/06 10:51:05;;;;;;;;;;;;;;;;;;5014783;28;20253;-62
2023/07/06 10:53:30;;;;;;;;;;;;;;;;;;5013400;28;19914;-61
2023/07/06 10:55:58;;;;;;;;;;;;;;;;;;5014515;28;20376;-61
2023/07/06 10:58:23;;;;;;;;;;;;;;;;;;5013159;28;19988;-61
2023/07/06 11:00:48;;;;;;;;;;;;;;;;;;5014765;28;19992;-61
2023/07/06 11:03:13;;;;;;;;;;;;;;;;;;5012578;28;19910;-61
2023/07/06 11:05:38;;;;;;;;;;;;;;;;;;5014403;28;19923;-62
2023/07/06 11:08:03;;;;;;;;;;;;;;;;;;5012839;28;20357;-61
2023/07/06 11:10:28;;;;;;;;;;;;;;;;;;5013893;28;19917;-61
2023/07/06 11:12:54;;;;;;;;;;;;;;;;;;5012851;28;19909;-61
2023/07/06 11:15:23;;;;;;;;;;;;;;;;;;5014762;28;19905;-61
2023/07/06 11:17:48;;;;;;;;;;;;;;;;;;5012468;28;20375;-61
2023/07/06 11:20:13;;;;;;;;;;;;;;;;;;5014421;28;19905;-61
2023/07/06 11:22:39;;;;;;;;;;;;;;;;;;5012880;28;19909;-62
2023/07/06 11:25:04;;;;;;;;;;;;;;;;;;5013853;28;19906;-61
2023/07/06 11:27:30;;;;;;;;;;;;;;;;;;5012899;28;20284;-61
2023/07/06 11:29:55;;;;;;;;;;;;;;;;;;5014054;28;19910;-61
2023/07/06 11:32:20;;;;;;;;;;;;;;;;;;5012640;28;19913;-61
2023/07/06 11:34:45;;;;;;;;;;;;;;;;;;5013756;28;20423;-61
2023/07/06 11:37:12;;;;;;;;;;;;;;;;;;5012471;28;19974;-61
2023/07/06 11:39:37;;;;;;;;;;;;;;;;;;5013989;28;19905;-61
2023/07/06 11:42:02;;;;;;;;;;;;;;;;;;5012128;28;20074;-61
2023/07/06 11:44:28;;;;;;;;;;;;;;;;;;5013903;28;19912;-61
2023/07/06 11:46:55;;;;;;;;;;;;;;;;;;5011778;28;20447;-62
2023/07/06 11:49:20;;;;;;;;;;;;;;;;;;5013375;28;19960;-61
2023/07/06 11:51:45;;;;;;;;;;;;;;;;;;5012510;28;19945;-67
2023/07/06 11:54:29;;;;;;;;;;;;;;;;;;5013440;28;19906;-61
2023/07/06 11:57:23;;;;;;;;;;;;;;;;;;5011572;28;19910;-61
2023/07/06 11:59:40;;;;;;;;;;;;;;;;;;5013555;28;19906;-62
2023/07/06 12:02:07;;;;;;;;;;;;;;;;;;5011178;28;19964;-62
2023/07/06 12:04:34;;;;;;;;;;;;;;;;;;5012074;28;19999;-62
2023/07/06 12:07:00;;;;;;;;;;;;;;;;;;5011854;28;19909;-62
2023/07/06 12:09:25;;;;;;;;;;;;;;;;;;5013178;28;19910;-62
2023/07/06 12:11:51;;;;;;;;;;;;;;;;;;5012011;28;19960;-62
2023/07/06 12:14:18;;;;;;;;;;;;;;;;;;5013495;28;19944;-62
2023/07/06 12:16:43;;;;;;;;;;;;;;;;;;5011503;28;19916;-62
2023/07/06 12:19:08;;;;;;;;;;;;;;;;;;5012908;28;19992;-62
2023/07/06 12:21:33;;;;;;;;;;;;;;;;;;5011993;28;19917;-62
2023/07/06 12:23:59;;;;;;;;;;;;;;;;;;5011969;28;20359;-62
2023/07/06 12:26:24;;;;;;;;;;;;;;;;;;5011371;28;19906;-62
2023/07/06 12:28:49;;;;;;;;;;;;;;;;;;5012920;28;19944;-62
2023/07/06 12:31:15;;;;;;;;;;;;;;;;;;5011511;28;19916;-62
2023/07/06 12:33:40;;;;;;;;;;;;;;;;;;5012561;28;20368;-62
2023/07/06 12:36:06;;;;;;;;;;;;;;;;;;5012383;28;20432;-63
2023/07/06 12:38:31;;;;;;;;;;;;;;;;;;5011175;28;19916;-64
2023/07/06 12:40:56;;;;;;;;;;;;;;;;;;5012260;28;19905;-60
2023/07/06 12:43:22;;;;;;;;;;;;;;;;;;5011304;28;19983;-60
2023/07/06 12:45:49;;;;;;;;;;;;;;;;;;5012642;28;19912;-59
2023/07/06 12:48:14;;;;;;;;;;;;;;;;;;5010629;28;19996;-60
2023/07/06 12:50:41;;;;;;;;;;;;;;;;;;5012726;28;20004;-60
2023/07/06 12:53:08;;;;;;;;;;;;;;;;;;5010956;28;19916;-60
2023/07/06 12:55:34;;;;;;;;;;;;;;;;;;5012416;28;19912;-60
2023/07/06 12:57:59;;;;;;;;;;;;;;;;;;5010831;28;20000;-60
2023/07/06 13:00:24;;;;;;;;;;;;;;;;;;5012464;28;20387;-60
2023/07/06 13:02:49;;;;;;;;;;;;;;;;;;5010573;28;19992;-60
2023/07/06 13:05:15;;;;;;;;;;;;;;;;;;5011923;28;19917;-60
2023/07/06 13:07:41;;;;;;;;;;;;;;;;;;5010937;28;19913;-60
2023/07/06 13:10:06;;;;;;;;;;;;;;;;;;5011754;28;19909;-60
2023/07/06 13:12:34;;;;;;;;;;;;;;;;;;5010951;28;19921;-60
2023/07/06 13:14:59;;;;;;;;;;;;;;;;;;5012123;28;19948;-60
2023/07/06 13:17:25;;;;;;;;;;;;;;;;;;5010502;28;19910;-60
2023/07/06 13:19:50;;;;;;;;;;;;;;;;;;5012361;28;19905;-60
2023/07/06 13:22:15;;;;;;;;;;;;;;;;;;5010518;28;19933;-60
2023/07/06 13:24:40;;;;;;;;;;;;;;;;;;5011390;28;19952;-60
2023/07/06 13:27:06;;;;;;;;;;;;;;;;;;5010170;28;19955;-59
2023/07/06 13:29:34;;;;;;;;;;;;;;;;;;5011927;28;19920;-60
2023/07/06 13:32:00;;;;;;;;;;;;;;;;;;5010155;28;20292;-60
2023/07/06 13:34:25;;;;;;;;;;;;;;;;;;5012089;28;19906;-60
2023/07/06 13:36:50;;;;;;;;;;;;;;;;;;5010641;28;20366;-60
2023/07/06 13:39:15;;;;;;;;;;;;;;;;;;5011477;28;19937;-60
2023/07/06 13:41:40;;;;;;;;;;;;;;;;;;5010521;28;19911;-60
2023/07/06 13:44:07;;;;;;;;;;;;;;;;;;5011350;28;20022;-60
2023/07/06 13:46:34;;;;;;;;;;;;;;;;;;5009830;28;20446;-60
2023/07/06 13:48:59;;;;;;;;;;;;;;;;;;5011415;28;20389;-60
2023/07/06 13:51:24;;;;;;;;;;;;;;;;;;5010359;28;20360;-60
2023/07/06 13:53:50;;;;;;;;;;;;;;;;;;5011250;28;19906;-61
2023/07/06 13:56:15;;;;;;;;;;;;;;;;;;5010485;28;19912;-59
2023/07/06 13:58:43;;;;;;;;;;;;;;;;;;5011663;28;20029;-60
2023/07/06 14:01:12;;;;;;;;;;;;;;;;;;5011001;28;19928;-60
2023/07/06 14:03:37;;;;;;;;;;;;;;;;;;5010273;28;19952;-60
2023/07/06 14:06:03;;;;;;;;;;;;;;;;;;5011151;28;19917;-60
2023/07/06 14:08:28;;;;;;;;;;;;;;;;;;5009484;28;19956;-60
2023/07/06 14:10:54;;;;;;;;;;;;;;;;;;5011609;28;19936;-60
2023/07/06 14:13:21;;;;;;;;;;;;;;;;;;5010015;28;19916;-60
2023/07/06 14:15:46;;;;;;;;;;;;;;;;;;5011348;28;19912;-59
2023/07/06 14:18:12;;;;;;;;;;;;;;;;;;5009700;28;19917;-60
2023/07/06 14:20:37;;;;;;;;;;;;;;;;;;5011169;28;20361;-60
2023/07/06 14:23:02;;;;;;;;;;;;;;;;;;5009364;28;20378;-60
2023/07/06 14:25:27;;;;;;;;;;;;;;;;;;5011487;28;19905;-60
2023/07/06 14:27:53;;;;;;;;;;;;;;;;;;5009680;28;19914;-60
2023/07/06 14:30:18;;;;;;;;;;;;;;;;;;5011168;28;19913;-61
2023/07/06 14:32:43;;;;;;;;;;;;;;;;;;5009921;28;19909;-60
2023/07/06 14:35:08;;;;;;;;;;;;;;;;;;5011147;28;20412;-60
2023/07/06 14:37:33;;;;;;;;;;;;;;;;;;5009676;28;19910;-59
2023/07/06 14:39:58;;;;;;;;;;;;;;;;;;5010973;28;20352;-60
2023/07/06 14:42:23;;;;;;;;;;;;;;;;;;5009782;28;19921;-59
2023/07/06 14:44:48;;;;;;;;;;;;;;;;;;5010008;28;19968;-60
2023/07/06 14:47:14;;;;;;;;;;;;;;;;;;5011965;28;19913;-60
2023/07/06 14:49:39;;;;;;;;;;;;;;;;;;5014756;28;19909;-60
2023/07/06 14:52:05;;;;;;;;;;;;;;;;;;5012854;28;19913;-59
2023/07/06 14:54:30;;;;;;;;;;;;;;;;;;5014139;28;19909;-60
2023/07/06 14:56:55;;;;;;;;;;;;;;;;;;5012848;28;19914;-60
2023/07/06 14:59:21;;;;;;;;;;;;;;;;;;5014524;28;19995;-60